createdAt,value
2018-02-10T03:30:05.015Z,31.20
2018-02-10T03:32:33.320Z,29.37
2018-02-10T03:35:01.635Z,28.87
2018-02-10T03:37:29.952Z,30.00
2018-02-10T03:39:58.264Z,30.27
2018-02-10T03:42:26.575Z,30.97
2018-02-10T03:44:54.871Z,31.43
2018-02-10T03:47:23.230Z,30.53
2018-02-10T03:49:51.555Z,31.00
2018-02-10T03:52:19.853Z,30.07
2018-02-10T03:54:48.184Z,29.80
2018-02-10T03:57:16.497Z,28.27
2018-02-10T03:59:44.804Z,28.57
2018-02-10T04:02:13.099Z,27.27
2018-02-10T04:04:41.417Z,27.07
2018-02-10T04:07:09.745Z,28.03
2018-02-10T04:09:38.036Z,27.87
2018-02-10T04:12:06.347Z,28.67
2018-02-10T04:14:35.424Z,28.40
2018-02-10T04:17:03.728Z,29.47
2018-02-10T04:19:32.012Z,31.03
2018-02-10T04:22:00.314Z,30.03
2018-02-10T04:24:28.595Z,30.13
2018-02-10T04:26:56.884Z,31.03
2018-02-10T04:29:25.186Z,30.73
2018-02-10T04:31:53.500Z,30.97
2018-02-10T04:34:21.808Z,30.07
2018-02-10T04:36:50.117Z,30.70
2018-02-10T04:39:18.398Z,30.37
2018-02-10T04:41:46.945Z,32.43
2018-02-10T04:44:15.250Z,28.93
2018-02-10T04:46:44.833Z,30.27
2018-02-10T04:49:13.414Z,29.90
2018-02-10T04:51:41.885Z,28.60
2018-02-10T04:54:10.162Z,29.40
2018-02-10T04:56:38.477Z,29.60
2018-02-10T04:59:06.775Z,27.97
2018-02-10T05:01:35.082Z,28.67
2018-02-10T05:04:03.401Z,28.53
2018-02-10T05:06:31.698Z,27.70
2018-02-10T05:09:00.029Z,26.90
2018-02-10T05:11:28.329Z,25.97
2018-02-10T05:13:56.643Z,27.93
2018-02-10T05:16:24.936Z,25.97
2018-02-10T05:18:53.250Z,25.50
2018-02-10T05:21:21.570Z,24.77
2018-02-10T05:23:49.873Z,23.63
2018-02-10T05:26:18.174Z,24.63
2018-02-10T05:28:46.485Z,24.07
2018-02-10T05:31:14.802Z,24.53
2018-02-10T05:33:43.093Z,22.27
2018-02-10T05:36:11.375Z,24.07
2018-02-10T05:38:39.669Z,23.43
2018-02-10T05:41:07.984Z,23.20
2018-02-10T05:43:37.033Z,22.90
2018-02-10T05:46:05.345Z,22.87
2018-02-10T05:48:33.649Z,22.57
2018-02-10T05:51:01.952Z,23.17
2018-02-10T05:53:30.256Z,22.10
2018-02-10T05:55:58.574Z,21.97
2018-02-10T05:58:26.883Z,21.73
2018-02-10T06:00:55.186Z,21.53
2018-02-10T06:03:23.510Z,21.80
2018-02-10T06:05:51.794Z,21.00
2018-02-10T06:08:20.104Z,21.40
2018-02-10T06:10:48.398Z,20.53
2018-02-10T06:13:16.706Z,21.87
2018-02-10T06:15:45.012Z,21.57
2018-02-10T06:18:13.494Z,21.03
2018-02-10T06:20:42.422Z,21.83
2018-02-10T06:23:10.730Z,20.20
2018-02-10T06:25:39.029Z,19.77
2018-02-10T06:28:08.271Z,20.90
2018-02-10T06:30:36.599Z,21.30
2018-02-10T06:33:04.897Z,19.77
2018-02-10T06:35:33.192Z,20.80
2018-02-10T06:38:01.570Z,20.97
2018-02-10T06:40:30.035Z,19.23
2018-02-10T06:42:58.362Z,18.87
2018-02-10T06:45:26.668Z,19.13
2018-02-10T06:47:55.026Z,19.17
2018-02-10T06:50:23.378Z,19.13
2018-02-10T06:52:51.719Z,19.30
2018-02-10T06:55:20.043Z,17.97
2018-02-10T06:57:48.391Z,17.87
2018-02-10T07:00:16.735Z,16.93
2018-02-10T07:02:45.085Z,18.33
2018-02-10T07:05:13.627Z,17.50
2018-02-10T07:07:42.021Z,18.57
2018-02-10T07:10:10.331Z,17.23
2018-02-10T07:12:38.702Z,17.73
2018-02-10T07:15:07.005Z,17.47
2018-02-10T07:17:35.433Z,17.37
2018-02-10T07:20:03.558Z,18.10
2018-02-10T07:22:31.936Z,16.00
2018-02-10T07:25:00.238Z,15.67
2018-02-10T07:27:28.543Z,18.83
2018-02-10T07:29:56.838Z,17.20
2018-02-10T07:32:25.145Z,16.40
2018-02-10T07:34:53.451Z,17.27
2018-02-10T07:37:21.795Z,17.10
2018-02-10T07:39:50.086Z,18.07
2018-02-10T07:42:18.370Z,16.13
2018-02-10T07:44:46.685Z,16.27
2018-02-10T07:47:15.023Z,16.20
2018-02-10T07:49:44.182Z,16.37
2018-02-10T07:52:12.496Z,16.97
2018-02-10T07:54:40.796Z,15.93
2018-02-10T07:57:09.120Z,16.80
2018-02-10T07:59:37.459Z,17.27
2018-02-10T08:02:05.760Z,16.73
2018-02-10T08:04:34.072Z,15.17
2018-02-10T08:07:02.440Z,13.93
2018-02-10T08:09:30.733Z,14.97
2018-02-10T08:11:59.040Z,14.07
2018-02-10T08:14:27.371Z,13.90
2018-02-10T08:16:55.676Z,13.13
2018-02-10T08:19:24.050Z,13.80
2018-02-10T08:21:52.422Z,12.73
2018-02-10T08:24:20.734Z,13.10
2018-02-10T08:26:49.078Z,12.80
2018-02-10T08:29:17.390Z,12.73
2018-02-10T08:31:45.684Z,12.33
2018-02-10T08:34:13.979Z,12.20
2018-02-10T08:36:42.276Z,11.50
2018-02-10T08:39:10.569Z,12.17
2018-02-10T08:41:38.868Z,12.00
2018-02-10T08:44:07.170Z,11.17
2018-02-10T08:46:35.481Z,11.70
2018-02-10T08:49:03.814Z,11.03
2018-02-10T08:51:32.852Z,10.53
2018-02-10T08:54:01.136Z,10.50
2018-02-10T08:56:29.430Z,10.70
2018-02-10T08:58:57.719Z,10.37
2018-02-10T09:01:26.028Z,9.37
2018-02-10T09:03:54.337Z,9.47
2018-02-10T09:06:22.646Z,9.63
2018-02-10T09:08:50.940Z,9.87
2018-02-10T09:11:19.425Z,9.70
2018-02-10T09:13:47.823Z,9.13
2018-02-10T09:16:16.463Z,10.07
2018-02-10T09:18:44.797Z,10.40
2018-02-10T09:21:13.100Z,9.83
2018-02-10T09:23:41.390Z,10.30
2018-02-10T09:26:09.743Z,9.63
2018-02-10T09:28:38.035Z,9.60
2018-02-10T09:31:06.355Z,9.50
2018-02-10T09:33:34.674Z,9.50
2018-02-10T09:36:03.001Z,9.93
2018-02-10T09:38:31.329Z,9.73
2018-02-10T09:40:59.648Z,11.30
2018-02-10T09:43:27.946Z,12.03
2018-02-10T09:45:56.262Z,14.43
2018-02-10T09:48:24.586Z,14.40
2018-02-10T09:50:52.899Z,15.27
2018-02-10T09:53:41.618Z,15.73
2018-02-10T09:56:10.106Z,16.97
2018-02-10T09:58:38.414Z,15.53
2018-02-10T10:01:06.762Z,16.90
2018-02-10T10:03:37.162Z,17.47
2018-02-10T10:06:05.670Z,16.77
2018-02-10T10:08:34.146Z,16.53
2018-02-10T10:11:02.484Z,16.93
2018-02-10T10:13:30.805Z,15.17
2018-02-10T10:15:59.126Z,15.77
2018-02-10T10:18:27.460Z,15.47
2018-02-10T10:20:55.773Z,15.67
2018-02-10T10:23:24.074Z,15.20
2018-02-10T10:25:52.381Z,15.43
2018-02-10T10:28:20.677Z,16.57
2018-02-10T10:30:48.976Z,16.73
2018-02-10T10:33:17.289Z,17.60
2018-02-10T10:35:45.578Z,17.40
2018-02-10T10:38:13.893Z,15.50
2018-02-10T10:40:42.197Z,15.87
2018-02-10T10:43:10.501Z,15.60
2018-02-10T10:45:38.818Z,15.43
2018-02-10T10:48:07.099Z,14.97
2018-02-10T10:50:35.386Z,14.33
2018-02-10T10:53:03.684Z,14.03
2018-02-10T10:55:32.000Z,14.63
2018-02-10T10:58:00.322Z,14.40
2018-02-10T11:00:28.427Z,13.50
2018-02-10T11:02:56.743Z,13.40
2018-02-10T11:05:25.260Z,13.70
2018-02-10T11:07:53.579Z,13.17
2018-02-10T11:10:22.138Z,13.37
2018-02-10T11:12:50.469Z,12.87
2018-02-10T11:15:18.753Z,12.60
2018-02-10T11:17:47.061Z,12.13
2018-02-10T11:20:15.363Z,12.40
2018-02-10T11:22:43.688Z,13.50
2018-02-10T11:25:12.008Z,15.93
2018-02-10T11:27:40.298Z,16.13
2018-02-10T11:30:08.595Z,14.60
2018-02-10T11:32:36.938Z,14.30
2018-02-10T11:35:05.270Z,14.70
2018-02-10T11:37:33.416Z,14.53
2018-02-10T11:40:01.771Z,14.60
2018-02-10T11:42:30.246Z,13.97
2018-02-10T11:44:58.542Z,13.60
2018-02-10T11:47:26.904Z,13.40
2018-02-10T11:49:55.229Z,13.00
2018-02-10T11:52:23.607Z,13.13
2018-02-10T11:54:51.926Z,12.67
2018-02-10T11:57:20.232Z,11.60
2018-02-10T11:59:49.587Z,11.70
2018-02-10T12:02:17.909Z,12.37
2018-02-10T12:04:46.216Z,11.57
2018-02-10T12:07:14.547Z,11.07
2018-02-10T12:09:42.858Z,11.43
2018-02-10T12:12:11.164Z,11.17
2018-02-10T12:14:39.459Z,10.90
2018-02-10T12:17:07.853Z,11.17
2018-02-10T12:19:36.314Z,10.97
2018-02-10T12:22:04.642Z,10.20
2018-02-10T12:24:32.935Z,10.60
2018-02-10T12:27:01.226Z,9.63
2018-02-10T12:29:29.514Z,10.27
2018-02-10T12:31:57.829Z,10.23
2018-02-10T12:34:26.145Z,10.80
2018-02-10T12:36:54.460Z,10.60
2018-02-10T12:39:22.755Z,9.30
2018-02-10T12:41:51.065Z,9.63
2018-02-10T12:44:19.352Z,9.70
2018-02-10T12:46:47.703Z,10.30
2018-02-10T12:49:21.566Z,9.77
2018-02-10T12:51:49.876Z,9.13
2018-02-10T12:54:18.180Z,9.63
2018-02-10T12:56:46.474Z,9.73
2018-02-10T12:59:14.780Z,9.10
2018-02-10T13:01:43.083Z,8.50
2018-02-10T13:04:11.404Z,9.23
2018-02-10T13:06:39.728Z,8.47
2018-02-10T13:09:08.063Z,8.47
2018-02-10T13:11:36.338Z,7.67
2018-02-10T13:14:04.643Z,8.83
2018-02-10T13:16:32.936Z,8.80
2018-02-10T13:19:01.272Z,8.83
2018-02-10T13:21:29.610Z,9.17
2018-02-10T13:23:57.792Z,8.10
2018-02-10T13:26:26.097Z,8.13
2018-02-10T13:28:54.389Z,8.13
2018-02-10T13:31:22.681Z,7.47
2018-02-10T13:33:50.976Z,7.90
2018-02-10T13:36:19.165Z,8.40
2018-02-10T13:38:47.454Z,7.43
2018-02-10T13:41:15.751Z,7.33
2018-02-10T13:43:43.983Z,7.47
2018-02-10T13:46:12.281Z,7.77
2018-02-10T13:48:41.287Z,8.00
2018-02-10T13:51:09.657Z,7.40
2018-02-10T13:53:37.946Z,7.53
2018-02-10T13:56:06.254Z,8.30
2018-02-10T13:58:34.538Z,7.87
2018-02-10T14:01:02.829Z,8.20
2018-02-10T14:03:31.133Z,9.13
2018-02-10T14:05:59.427Z,8.40
2018-02-10T14:08:27.772Z,9.00
2018-02-10T14:10:56.055Z,9.40
2018-02-10T14:13:24.343Z,9.37
2018-02-10T14:15:52.637Z,8.70
2018-02-10T14:18:20.937Z,8.40
2018-02-10T14:20:50.253Z,8.53
2018-02-10T14:23:18.365Z,8.53
2018-02-10T14:25:46.454Z,8.93
2018-02-10T14:28:14.545Z,8.90
2018-02-10T14:30:42.830Z,8.57
2018-02-10T14:33:11.108Z,8.97
2018-02-10T14:35:39.388Z,9.60
2018-02-10T14:38:07.902Z,10.10
2018-02-10T14:40:36.210Z,10.00
2018-02-10T14:43:04.903Z,9.70
2018-02-10T14:45:33.272Z,9.13
2018-02-10T14:48:01.649Z,9.33
2018-02-10T14:50:29.948Z,9.77
2018-02-10T14:52:58.262Z,9.30
2018-02-10T14:55:26.569Z,9.67
2018-02-10T14:57:54.921Z,9.23
2018-02-10T15:00:23.250Z,8.87
2018-02-10T15:02:51.617Z,9.17
2018-02-10T15:05:19.902Z,7.97
2018-02-10T15:07:48.828Z,8.47
2018-02-10T15:10:17.137Z,7.83
2018-02-10T15:12:45.413Z,8.23
2018-02-10T15:18:05.564Z,8.90
2018-02-10T15:20:34.677Z,7.60
2018-02-10T15:23:02.977Z,7.80
2018-02-10T15:25:31.082Z,7.93
2018-02-10T15:27:59.421Z,7.13
2018-02-10T15:30:39.147Z,7.93
2018-02-10T15:33:18.888Z,7.27
2018-02-10T15:35:47.231Z,6.87
2018-02-10T15:38:15.506Z,6.93
2018-02-10T15:40:43.799Z,7.57
2018-02-10T15:43:12.113Z,6.70
2018-02-10T15:45:40.390Z,7.03
2018-02-10T15:48:08.675Z,7.30
2018-02-10T15:50:36.993Z,7.00
2018-02-10T15:53:05.298Z,6.70
2018-02-10T15:55:33.631Z,7.10
2018-02-10T15:58:01.945Z,6.70
2018-02-10T16:00:30.278Z,6.43
2018-02-10T16:02:58.764Z,7.03
2018-02-10T16:05:27.047Z,7.30
2018-02-10T16:07:55.396Z,7.60
2018-02-10T16:10:23.702Z,7.77
2018-02-10T16:12:52.003Z,8.90
2018-02-10T16:15:20.342Z,12.50
2018-02-10T16:17:48.717Z,18.93
2018-02-10T16:20:17.060Z,13.90
2018-02-10T16:22:45.386Z,11.97
2018-02-10T16:25:14.044Z,10.93
2018-02-10T16:27:42.357Z,11.60
2018-02-10T16:30:10.683Z,11.13
2018-02-10T16:32:39.896Z,10.47
2018-02-10T16:35:08.218Z,10.70
2018-02-10T16:37:36.534Z,10.40
2018-02-10T16:40:05.100Z,9.80
2018-02-10T16:42:33.313Z,10.63
2018-02-10T16:45:01.639Z,9.97
2018-02-10T16:47:29.973Z,10.00
2018-02-10T16:49:58.269Z,9.73
2018-02-10T16:52:26.425Z,13.63
2018-02-10T16:54:55.349Z,12.37
2018-02-10T16:57:23.914Z,11.53
2018-02-10T16:59:52.402Z,16.33
2018-02-10T17:02:20.713Z,16.50
2018-02-10T17:04:49.617Z,15.10
2018-02-10T17:07:17.908Z,15.03
2018-02-10T17:09:46.225Z,14.77
2018-02-10T17:12:15.376Z,15.53
2018-02-10T17:14:43.903Z,14.73
2018-02-10T17:17:12.699Z,14.23
2018-02-10T17:19:41.046Z,12.97
2018-02-10T17:22:10.341Z,13.17
2018-02-10T17:24:38.432Z,12.53
2018-02-10T17:27:06.917Z,12.60
2018-02-10T17:29:35.446Z,11.90
2018-02-10T17:32:03.747Z,12.47
2018-02-10T17:34:32.182Z,11.23
2018-02-10T17:37:00.578Z,10.90
2018-02-10T17:39:28.764Z,11.30
2018-02-10T17:41:57.080Z,10.80
2018-02-10T17:44:25.198Z,10.37
2018-02-10T17:46:53.541Z,11.07
2018-02-10T17:49:22.008Z,10.13
2018-02-10T17:53:04.989Z,10.20
2018-02-10T17:55:33.397Z,10.07
2018-02-10T17:58:01.764Z,10.10
2018-02-10T18:00:30.053Z,9.60
2018-02-10T18:02:58.338Z,9.90
2018-02-10T18:05:26.632Z,10.30
2018-02-10T18:07:54.962Z,9.40
2018-02-10T18:10:23.060Z,9.07
2018-02-10T18:12:51.779Z,9.10
2018-02-10T18:15:20.085Z,8.83
2018-02-10T18:17:48.385Z,9.00
2018-02-10T18:20:16.667Z,8.70
2018-02-10T18:22:44.970Z,8.37
2018-02-10T18:25:13.249Z,8.40
2018-02-10T18:27:41.303Z,8.57
2018-02-10T18:30:09.534Z,9.17
2018-02-10T18:32:37.652Z,8.40
2018-02-10T18:35:06.874Z,8.07
2018-02-10T18:37:35.410Z,7.20
2018-02-10T18:40:03.698Z,7.50
2018-02-10T18:42:31.983Z,7.63
2018-02-10T18:45:00.263Z,6.77
2018-02-10T18:47:28.586Z,6.93
2018-02-10T18:49:56.960Z,7.20
2018-02-10T18:52:25.394Z,7.80
2018-02-10T18:54:55.161Z,7.23
2018-02-10T18:57:23.494Z,7.57
2018-02-10T18:59:51.866Z,7.07
2018-02-10T19:02:20.245Z,7.67
2018-02-10T19:04:48.573Z,7.23
2018-02-10T19:07:16.807Z,6.50
2018-02-10T19:09:45.128Z,6.70
2018-02-10T19:12:13.469Z,6.80
2018-02-10T19:14:42.386Z,6.87
2018-02-10T19:17:10.736Z,6.77
2018-02-10T19:19:39.052Z,7.30
2018-02-10T19:22:07.889Z,7.00
2018-02-10T19:24:36.015Z,6.90
2018-02-10T19:27:04.337Z,6.43
2018-02-10T19:29:32.616Z,6.20
2018-02-10T19:32:00.906Z,6.40
2018-02-10T19:34:29.062Z,5.60
2018-02-10T19:36:58.049Z,6.07
2018-02-10T19:39:26.683Z,6.30
2018-02-10T19:41:55.342Z,5.80
2018-02-10T19:44:23.644Z,6.13
2018-02-10T19:46:52.587Z,6.27
2018-02-10T19:49:21.626Z,5.83
2018-02-10T19:51:50.810Z,5.60
2018-02-10T19:54:18.881Z,5.97
2018-02-10T19:56:47.178Z,5.37
2018-02-10T19:59:15.479Z,5.60
2018-02-10T20:01:43.839Z,5.27
2018-02-10T20:04:12.184Z,5.43
2018-02-10T20:06:40.723Z,5.20
2018-02-10T20:09:09.873Z,4.97
2018-02-10T20:11:38.510Z,5.27
2018-02-10T20:14:07.628Z,5.47
2018-02-10T20:16:36.442Z,4.87
2018-02-10T20:19:04.740Z,4.83
2018-02-10T20:21:33.745Z,4.97
2018-02-10T20:24:02.076Z,5.07
2018-02-10T20:26:30.277Z,4.67
2018-02-10T20:28:58.576Z,5.03
2018-02-10T20:31:26.889Z,4.70
2018-02-10T20:33:55.186Z,4.43
2018-02-10T20:36:23.543Z,4.40
2018-02-10T20:38:51.874Z,4.70
2018-02-10T20:41:20.946Z,4.60
2018-02-10T20:43:49.260Z,4.33
2018-02-10T20:46:17.542Z,4.80
2018-02-10T20:48:45.866Z,4.70
2018-02-10T20:51:14.777Z,4.50
2018-02-10T20:53:43.076Z,3.87
2018-02-10T20:56:11.404Z,4.20
2018-02-10T20:58:39.713Z,3.77
2018-02-10T21:01:07.938Z,3.70
2018-02-10T21:03:36.365Z,4.20
2018-02-10T21:06:04.694Z,3.70
2018-02-10T21:08:32.991Z,4.10
2018-02-10T21:11:01.350Z,4.13
2018-02-10T21:13:29.800Z,3.80
2018-02-10T21:15:58.103Z,3.90
2018-02-10T21:18:29.115Z,4.00
2018-02-10T21:20:57.482Z,3.90
2018-02-10T21:23:26.162Z,3.93
2018-02-10T21:25:54.574Z,4.30
2018-02-10T21:28:22.873Z,4.93
2018-02-10T21:30:51.167Z,4.80
2018-02-10T21:33:19.585Z,5.00
2018-02-10T21:35:47.875Z,4.27
2018-02-10T21:38:16.163Z,4.37
2018-02-10T21:40:44.474Z,4.40
2018-02-10T21:43:12.804Z,4.60
2018-02-10T21:45:41.078Z,4.40
2018-02-10T21:48:10.173Z,4.03
2018-02-10T21:50:38.460Z,4.20
2018-02-10T21:53:06.766Z,4.30
2018-02-10T21:55:35.089Z,4.00
2018-02-10T21:58:03.394Z,4.20
2018-02-10T22:00:31.700Z,3.87
2018-02-10T22:02:59.990Z,3.60
2018-02-10T22:05:28.309Z,3.73
2018-02-10T22:07:56.600Z,4.00
2018-02-10T22:10:24.921Z,3.60
2018-02-10T22:12:53.220Z,3.33
2018-02-10T22:15:21.517Z,3.07
2018-02-10T22:17:49.825Z,4.17
2018-02-10T22:20:18.167Z,3.30
2018-02-10T22:22:46.486Z,3.30
2018-02-10T22:25:14.784Z,3.70
2018-02-10T22:27:43.090Z,3.10
2018-02-10T22:30:11.404Z,3.10
2018-02-10T22:32:39.707Z,3.30
2018-02-10T22:35:08.028Z,3.10
2018-02-10T22:37:36.346Z,2.70
2018-02-10T22:40:04.460Z,3.10
2018-02-10T22:42:32.766Z,2.60
2018-02-10T22:45:01.083Z,2.57
2018-02-10T22:47:29.380Z,2.80
2018-02-10T22:49:58.676Z,2.90
2018-02-10T22:52:27.191Z,2.73
2018-02-10T22:54:55.500Z,2.80
2018-02-10T22:57:23.822Z,2.70
2018-02-10T22:59:52.112Z,2.53
2018-02-10T23:02:20.407Z,2.70
2018-02-10T23:04:48.776Z,2.60
2018-02-10T23:07:17.069Z,2.53
2018-02-10T23:09:45.360Z,2.57
2018-02-10T23:12:13.658Z,2.13
2018-02-10T23:14:41.993Z,2.33
2018-02-10T23:17:10.298Z,2.40
2018-02-10T23:19:38.650Z,2.10
2018-02-10T23:22:06.948Z,2.10
2018-02-10T23:24:35.243Z,2.13
2018-02-10T23:27:03.681Z,2.30
2018-02-10T23:29:31.963Z,1.97
2018-02-10T23:32:00.272Z,1.83
2018-02-10T23:34:28.559Z,2.03
2018-02-10T23:36:56.862Z,1.80
2018-02-10T23:39:25.180Z,1.80
2018-02-10T23:41:54.261Z,2.00
2018-02-10T23:44:22.546Z,1.90
2018-02-10T23:46:50.855Z,2.07
2018-02-10T23:49:19.150Z,2.07
2018-02-10T23:51:47.426Z,1.80
2018-02-10T23:54:15.761Z,2.00
2018-02-10T23:56:44.054Z,1.80
2018-02-10T23:59:12.361Z,2.07
